Terminal Aerodrome Forecast
Issued by NWS

Home | Current Version | Previous Version | Text Only | Print | Product List | Glossary Off
Versions: 1 2 3 4 5 6 7 8 9 10 11 12 13 14 15 16 17 18 19 20 21 22 23 24 25 26 27 28 29 30 31 32 33 34 35 36 37
000 FTUS41 KBOX 182342 TAFHYA TAF KHYA 182342Z 1900/1924 29012KT P6SM OVC035 FM190600 31010KT P6SM SCT100 FM191400 33009KT P6SM BKN050 FM191700 34008KT P6SM BKN025 FM192000 34007KT P6SM BKN050=

USA.gov is the U.S. government's official web portal to all federal, state and local government web resources and services.